Time;durP1;ratioP1;P1;durP2;ratioP2;P2;SDS_P1;SDS_P2;PMS_P1;PMS_P2;Temp;Humidity;BMP_temperature;BMP_pressure;BME280_temperature;BME280_humidity;BME280_pressure;Samples;Min_cycle;Max_cycle;Signal;HPM_P1;HPM_P2
2022/05/16 00:01:28;;;;;;;;;;;;;;;26.75;45.73;94290.44;4854928;29;6991;-44
2022/05/16 00:03:58;;;;;;;;;;;;;;;26.76;45.94;94283.66;4865134;29;7275;-47
2022/05/16 00:06:36;;;;;;;;;;;;;;;26.77;45.82;94292.69;4864866;29;7248;-46
2022/05/16 00:09:26;;;;;;;;;;;;;;;26.75;44.92;94304.22;4844820;29;8727;-43
2022/05/16 00:11:52;;;;;;;;;;;;;;;26.77;44.91;94304.47;4858943;29;7271;-47
2022/05/16 00:14:18;;;;;;;;;;;;;;;26.77;44.76;94309.25;4898761;29;8918;-48
2022/05/16 00:16:44;;;;;;;;;;;;;;;26.82;45.24;94319.44;4926323;29;7114;-48
2022/05/16 00:19:13;;;;;;;;;;;;;;;26.76;45.00;94316.03;4911842;29;7233;-44
2022/05/16 00:21:39;;;;;;;;;;;;;;;26.74;44.90;94318.56;4922493;29;7252;-44
2022/05/16 00:24:05;;;;;;;;;;;;;;;26.75;44.69;94318.03;4932060;29;7400;-48
2022/05/16 00:26:34;;;;;;;;;;;;;;;26.75;45.55;94320.78;4926337;29;8667;-44
2022/05/16 00:29:02;;;;;;;;;;;;;;;26.77;44.68;94314.78;4926399;29;9558;-49
2022/05/16 00:31:29;;;;;;;;;;;;;;;26.78;45.58;94316.25;4930910;29;9630;-47
2022/05/16 00:33:55;;;;;;;;;;;;;;;26.78;44.50;94307.97;4928365;29;9237;-47
2022/05/16 00:36:21;;;;;;;;;;;;;;;26.74;45.40;94313.03;4929299;29;7218;-46
2022/05/16 00:38:47;;;;;;;;;;;;;;;26.77;44.78;94318.25;4920535;29;9093;-50
2022/05/16 00:41:16;;;;;;;;;;;;;;;26.76;45.26;94314.00;4927884;29;9455;-44
2022/05/16 00:43:44;;;;;;;;;;;;;;;26.73;45.90;94317.81;4907880;29;7307;-47
2022/05/16 00:46:14;;;;;;;;;;;;;;;26.73;44.82;94322.59;4933201;29;9461;-43
2022/05/16 00:48:41;;;;;;;;;;;;;;;26.72;45.05;94326.59;4928614;29;9079;-45
2022/05/16 00:51:46;;;;;;;;;;;;;;;26.74;45.68;94332.34;4934787;29;9778;-46
2022/05/16 00:54:28;;;;;;;;;;;;;;;26.73;45.09;94325.34;4932094;29;7696;-45
2022/05/16 00:57:08;;;;;;;;;;;;;;;26.73;44.99;94325.34;4938611;29;7249;-44
2022/05/16 00:59:43;;;;;;;;;;;;;;;26.73;45.70;94328.13;4922248;29;9126;-46
2022/05/16 01:04:56;;;;;;;;;;;;;;;26.72;45.29;94327.34;4933871;29;7412;-45
2022/05/16 01:07:32;;;;;;;;;;;;;;;26.71;45.60;94327.84;4939492;29;8745;-43
2022/05/16 01:10:07;;;;;;;;;;;;;;;26.73;44.73;94323.31;4933813;28;7665;-46
2022/05/16 01:12:38;;;;;;;;;;;;;;;26.73;44.80;94326.09;4934135;28;9063;-43
2022/05/16 01:15:12;;;;;;;;;;;;;;;26.72;44.87;94321.06;4936244;28;7558;-44
2022/05/16 01:17:40;;;;;;;;;;;;;;;26.71;45.03;94320.31;4937979;28;7350;-45
2022/05/16 01:20:54;;;;;;;;;;;;;;;26.72;45.61;94323.81;4938072;28;7229;-47
2022/05/16 01:23:57;;;;;;;;;;;;;;;26.70;45.60;94318.84;4935117;28;7274;-44
2022/05/16 01:26:27;;;;;;;;;;;;;;;26.70;45.19;94309.81;4915237;29;9240;-47
2022/05/16 01:28:55;;;;;;;;;;;;;;;26.68;44.74;94318.59;4915368;29;7271;-46
2022/05/16 01:31:22;;;;;;;;;;;;;;;26.70;45.30;94321.59;4882089;29;7240;-44
2022/05/16 01:33:59;;;;;;;;;;;;;;;26.69;44.85;94324.84;4894951;29;7291;-46
2022/05/16 01:36:28;;;;;;;;;;;;;;;26.67;44.63;94319.84;4899280;29;9114;-45
2022/05/16 01:39:06;;;;;;;;;;;;;;;26.69;45.75;94316.56;4887898;29;9707;-44
2022/05/16 01:41:44;;;;;;;;;;;;;;;26.69;44.74;94316.56;4909851;29;6864;-44
2022/05/16 01:44:11;;;;;;;;;;;;;;;26.67;45.32;94317.09;4912599;29;9030;-45
2022/05/16 01:46:40;;;;;;;;;;;;;;;26.67;45.74;94324.63;4918034;29;7046;-44
2022/05/16 01:49:12;;;;;;;;;;;;;;;26.67;44.82;94328.13;4915663;29;7305;-44
2022/05/16 01:51:43;;;;;;;;;;;;;;;26.68;44.98;94328.88;4881713;29;8674;-46
2022/05/16 01:54:13;;;;;;;;;;;;;;;26.69;44.85;94322.09;4913754;29;7839;-50
2022/05/16 01:56:40;;;;;;;;;;;;;;;26.65;45.55;94321.63;4905685;29;9128;-46
2022/05/16 01:59:07;;;;;;;;;;;;;;;26.67;44.68;94327.38;4895816;29;9090;-45
2022/05/16 02:01:36;;;;;;;;;;;;;;;26.68;45.48;94324.13;4899989;29;7054;-47
2022/05/16 02:04:02;;;;;;;;;;;;;;;26.66;45.11;94315.63;4934793;28;8822;-43
2022/05/16 02:06:36;;;;;;;;;;;;;;;26.66;45.32;94321.13;4933082;29;9127;-46
2022/05/16 02:09:02;;;;;;;;;;;;;;;26.67;45.02;94313.59;4935843;28;9251;-42
2022/05/16 02:11:31;;;;;;;;;;;;;;;26.64;44.93;94311.88;4935185;29;7263;-44
2022/05/16 02:14:06;;;;;;;;;;;;;;;26.65;44.65;94314.13;4917871;29;7872;-42
2022/05/16 02:16:36;;;;;;;;;;;;;;;26.65;44.93;94316.88;4939715;28;8176;-43
2022/05/16 02:19:02;;;;;;;;;;;;;;;26.64;44.79;94304.34;4944952;28;7264;-42
2022/05/16 02:24:54;;;;;;;;;;;;;;;26.67;45.41;94305.31;4909177;29;8746;-46
2022/05/16 02:27:36;;;;;;;;;;;;;;;26.64;44.91;94303.59;4896812;29;7130;-43
2022/05/16 02:30:04;;;;;;;;;;;;;;;26.62;44.66;94303.38;4900961;29;7571;-44
2022/05/16 02:32:48;;;;;;;;;;;;;;;26.63;45.17;94302.84;4910473;29;7395;-42
2022/05/16 02:35:23;;;;;;;;;;;;;;;26.61;44.91;94307.41;4908176;29;9062;-44
2022/05/16 02:38:06;;;;;;;;;;;;;;;26.61;44.72;94302.63;4889084;29;7099;-44
2022/05/16 02:40:36;;;;;;;;;;;;;;;26.61;44.71;94302.63;4896968;29;9188;-43
2022/05/16 02:43:12;;;;;;;;;;;;;;;26.61;45.13;94296.34;4897956;29;7193;-43
2022/05/16 02:45:53;;;;;;;;;;;;;;;26.62;45.42;94303.38;4906672;29;8771;-46
2022/05/16 02:48:33;;;;;;;;;;;;;;;26.62;44.68;94304.09;4898358;29;9106;-45
2022/05/16 02:51:10;;;;;;;;;;;;;;;26.63;44.48;94307.63;4897758;29;7349;-45
2022/05/16 02:53:37;;;;;;;;;;;;;;;26.62;44.39;94317.91;4906199;29;8956;-44
2022/05/16 02:56:08;;;;;;;;;;;;;;;26.62;44.80;94314.41;4904711;29;6997;-43
2022/05/16 02:58:36;;;;;;;;;;;;;;;26.60;44.88;94336.25;4879454;29;7242;-43
2022/05/16 03:01:02;;;;;;;;;;;;;;;26.60;44.79;94328.72;4906699;29;9110;-43
2022/05/16 03:03:28;;;;;;;;;;;;;;;26.58;44.45;94324.97;4906607;29;6844;-45
2022/05/16 03:05:54;;;;;;;;;;;;;;;26.60;44.75;94331.47;4934955;28;7047;-46
2022/05/16 03:08:23;;;;;;;;;;;;;;;26.59;44.97;94332.00;4926817;29;7039;-46
2022/05/16 03:10:49;;;;;;;;;;;;;;;26.59;44.83;94337.50;4930626;29;9192;-44
2022/05/16 03:13:15;;;;;;;;;;;;;;;26.59;44.42;94337.50;4930741;28;8753;-45
2022/05/16 03:15:45;;;;;;;;;;;;;;;26.58;44.77;94339.53;4929831;29;9602;-44
2022/05/16 03:18:11;;;;;;;;;;;;;;;26.60;44.94;94333.50;4927418;29;7864;-47
2022/05/16 03:20:39;;;;;;;;;;;;;;;26.56;44.30;94338.53;4928780;29;7317;-44
2022/05/16 03:23:05;;;;;;;;;;;;;;;26.55;44.99;94332.31;4934824;28;9530;-47
2022/05/16 03:25:31;;;;;;;;;;;;;;;26.56;44.46;94338.53;4937772;28;8430;-45
2022/05/16 03:27:59;;;;;;;;;;;;;;;26.55;44.62;94332.31;4935524;28;9163;-47
2022/05/16 03:30:35;;;;;;;;;;;;;;;26.57;44.30;94343.56;4943865;28;7059;-49
2022/05/16 03:33:08;;;;;;;;;;;;;;;26.55;45.17;94343.34;4935915;28;7320;-48
2022/05/16 03:35:40;;;;;;;;;;;;;;;26.55;45.40;94339.81;4940054;28;9074;-45
2022/05/16 03:40:41;;;;;;;;;;;;;;;26.55;45.26;94350.84;4938790;28;9161;-48
2022/05/16 03:41:25;;;;;;;;;;;;;;;26.55;44.35;94353.63;4921216;29;7400;-44
2022/05/16 03:44:04;;;;;;;;;;;;;;;26.55;45.00;94362.63;4939418;28;9226;-45
2022/05/16 03:46:34;;;;;;;;;;;;;;;26.55;45.37;94356.38;4941930;28;6880;-48
2022/05/16 03:49:01;;;;;;;;;;;;;;;26.54;44.99;94352.84;4932070;28;7640;-45
2022/05/16 03:51:30;;;;;;;;;;;;;;;26.55;44.84;94361.88;4928853;29;9464;-48
2022/05/16 03:54:11;;;;;;;;;;;;;;;26.54;44.69;94361.13;4946578;28;9476;-45
2022/05/16 03:56:38;;;;;;;;;;;;;;;26.55;44.41;94359.88;4936634;29;9700;-45
2022/05/16 03:59:04;;;;;;;;;;;;;;;26.54;44.99;94365.91;4933373;29;9514;-45
2022/05/16 04:01:30;;;;;;;;;;;;;;;26.52;44.62;94371.19;4930447;29;7467;-46
2022/05/16 04:03:59;;;;;;;;;;;;;;;26.53;44.69;94365.16;4930917;28;8637;-45
2022/05/16 04:06:27;;;;;;;;;;;;;;;26.48;45.08;94365.22;4933672;29;7235;-44
2022/05/16 04:09:46;;;;;;;;;;;;;;;26.51;44.54;94366.94;4933306;29;9122;-46
2022/05/16 04:12:12;;;;;;;;;;;;;;;26.53;44.33;94378.22;4878914;29;9485;-49
2022/05/16 04:14:54;;;;;;;;;;;;;;;26.53;44.85;94383.72;4906892;29;8990;-46
2022/05/16 04:17:29;;;;;;;;;;;;;;;26.52;44.61;94384.97;4885219;29;7439;-48
2022/05/16 04:20:06;;;;;;;;;;;;;;;26.50;44.57;94385.50;4890352;29;7225;-46
2022/05/16 04:22:54;;;;;;;;;;;;;;;26.50;44.58;94380.00;4890365;29;7154;-48
2022/05/16 04:25:21;;;;;;;;;;;;;;;26.49;45.20;94381.25;4877779;29;7319;-47
2022/05/16 04:27:53;;;;;;;;;;;;;;;26.49;44.30;94388.78;4870783;29;8761;-47
2022/05/16 04:30:20;;;;;;;;;;;;;;;26.48;44.12;94393.56;4875032;29;8681;-44
2022/05/16 04:32:46;;;;;;;;;;;;;;;26.49;44.54;94388.78;4873465;29;9054;-43
2022/05/16 04:35:16;;;;;;;;;;;;;;;26.48;44.44;94392.78;4889022;29;9153;-43
2022/05/16 04:37:46;;;;;;;;;;;;;;;26.47;45.04;94394.06;4880809;29;9457;-43
2022/05/16 04:43:31;;;;;;;;;;;;;;;26.40;44.89;94386.38;4856138;29;7272;-46
2022/05/16 04:46:17;;;;;;;;;;;;;;;26.41;44.55;94388.59;4849647;29;9017;-44
2022/05/16 04:48:58;;;;;;;;;;;;;;;26.40;44.85;94386.38;4877987;29;7047;-48
2022/05/16 04:52:11;;;;;;;;;;;;;;;26.44;44.26;94397.84;4893553;29;9094;-44
2022/05/16 04:54:40;;;;;;;;;;;;;;;26.44;44.70;94397.84;4824836;29;7202;-43
2022/05/16 04:57:07;;;;;;;;;;;;;;;26.45;44.84;94400.09;4822856;29;7045;-45
2022/05/16 04:59:33;;;;;;;;;;;;;;;26.43;45.19;94399.09;4809397;29;9117;-43
2022/05/16 05:02:01;;;;;;;;;;;;;;;26.41;44.31;94402.38;4808068;29;9083;-43
2022/05/16 05:04:27;;;;;;;;;;;;;;;26.40;44.24;94408.44;4807955;29;9400;-44
2022/05/16 05:07:03;;;;;;;;;;;;;;;26.43;45.09;94401.88;4807921;29;7228;-43
2022/05/16 05:15:42;;;;;;;;;;;;;;;26.43;44.90;94421.16;4823117;29;9186;-46
2022/05/16 05:18:24;;;;;;;;;;;;;;;26.40;44.15;94422.97;4813381;29;8782;-44
2022/05/16 05:21:20;;;;;;;;;;;;;;;26.41;44.48;94432.72;4864191;29;7278;-47
2022/05/16 05:23:55;;;;;;;;;;;;;;;26.43;44.28;94437.72;4843448;29;7833;-45
2022/05/16 05:26:32;;;;;;;;;;;;;;;26.39;43.61;94442.78;4841915;29;8058;-43
2022/05/16 05:29:03;;;;;;;;;;;;;;;26.40;43.47;94458.06;4847352;29;9141;-43
2022/05/16 05:31:41;;;;;;;;;;;;;;;26.39;43.50;94445.53;4871678;29;9015;-44
2022/05/16 05:34:24;;;;;;;;;;;;;;;26.40;43.76;94449.78;4902008;29;9166;-44
2022/05/16 05:36:50;;;;;;;;;;;;;;;26.39;44.09;94467.59;4890343;29;7071;-46
2022/05/16 05:39:41;;;;;;;;;;;;;;;26.40;44.04;94466.34;4897453;29;8046;-44
2022/05/16 05:42:14;;;;;;;;;;;;;;;26.36;44.48;94461.09;4898156;29;7294;-43
2022/05/16 05:44:40;;;;;;;;;;;;;;;26.40;44.18;94467.09;4898474;29;6989;-44
2022/05/16 05:47:07;;;;;;;;;;;;;;;26.40;44.02;94469.09;4897233;29;7492;-42
2022/05/16 05:49:44;;;;;;;;;;;;;;;26.39;44.82;94462.06;4905191;29;8726;-43
2022/05/16 05:52:12;;;;;;;;;;;;;;;26.40;44.68;94471.84;4905786;29;7523;-44
2022/05/16 05:54:48;;;;;;;;;;;;;;;26.38;44.58;94472.34;4896799;29;7841;-47
2022/05/16 05:57:16;;;;;;;;;;;;;;;26.38;44.63;94479.91;4902644;29;7677;-45
2022/05/16 05:59:42;;;;;;;;;;;;;;;26.39;44.40;94486.91;4920430;28;9070;-47
2022/05/16 06:02:09;;;;;;;;;;;;;;;26.39;44.58;94481.38;4935671;28;7471;-44
2022/05/16 06:04:36;;;;;;;;;;;;;;;26.39;43.99;94484.88;4930131;28;7303;-44
2022/05/16 06:07:09;;;;;;;;;;;;;;;26.39;43.82;94497.94;4941880;28;9041;-45
2022/05/16 06:09:54;;;;;;;;;;;;;;;26.40;44.16;94493.91;4935560;29;9386;-45
2022/05/16 06:12:32;;;;;;;;;;;;;;;26.38;44.56;94493.69;4944028;28;6988;-45
2022/05/16 06:15:04;;;;;;;;;;;;;;;26.37;44.23;94494.94;4946413;28;8677;-45
2022/05/16 06:17:30;;;;;;;;;;;;;;;26.35;44.19;94500.97;4910140;29;9082;-45
2022/05/16 06:20:04;;;;;;;;;;;;;;;26.37;44.13;94498.44;4933396;29;9171;-47
2022/05/16 06:22:34;;;;;;;;;;;;;;;26.36;44.99;94494.19;4928504;29;9425;-44
2022/05/16 06:27:47;;;;;;;;;;;;;;;26.39;44.85;94517.22;4931101;29;9068;-44
2022/05/16 06:30:15;;;;;;;;;;;;;;;26.39;44.83;94514.47;4929876;29;7086;-44
2022/05/16 06:32:42;;;;;;;;;;;;;;;26.38;44.58;94510.97;4904781;29;9386;-44
2022/05/16 06:35:08;;;;;;;;;;;;;;;26.38;44.63;94522.00;4939381;28;7072;-44
2022/05/16 06:37:37;;;;;;;;;;;;;;;26.39;44.78;94520.75;4930113;28;7309;-44
2022/05/16 06:40:06;;;;;;;;;;;;;;;26.40;45.32;94518.75;4929260;29;9326;-45
2022/05/16 06:42:32;;;;;;;;;;;;;;;26.41;44.72;94520.22;4934863;28;9071;-43
2022/05/16 06:45:08;;;;;;;;;;;;;;;26.40;44.29;94538.03;4944012;28;8088;-43
2022/05/16 06:47:42;;;;;;;;;;;;;;;26.41;44.52;94536.78;4926697;29;9090;-42
2022/05/16 06:50:12;;;;;;;;;;;;;;;26.40;44.81;94541.56;4934541;28;9208;-44
2022/05/16 06:52:50;;;;;;;;;;;;;;;26.39;44.53;94542.81;4941937;28;7456;-43
2022/05/16 06:55:17;;;;;;;;;;;;;;;26.38;44.40;94540.56;4940534;28;7244;-44
2022/05/16 06:57:51;;;;;;;;;;;;;;;26.36;44.77;94551.38;4941252;28;7256;-45
2022/05/16 07:00:19;;;;;;;;;;;;;;;26.40;44.25;94549.06;4913787;29;9185;-44
2022/05/16 07:02:47;;;;;;;;;;;;;;;26.39;45.16;94553.84;4947545;28;7220;-46
2022/05/16 07:05:13;;;;;;;;;;;;;;;26.36;44.82;94554.84;4930810;29;7410;-45
2022/05/16 07:07:45;;;;;;;;;;;;;;;26.39;44.70;94566.88;4930396;28;9154;-43
2022/05/16 07:10:37;;;;;;;;;;;;;;;26.39;44.39;94575.16;4929272;29;9237;-43
2022/05/16 07:13:04;;;;;;;;;;;;;;;26.39;45.29;94566.88;4937603;28;7614;-45
2022/05/16 07:15:34;;;;;;;;;;;;;;;26.34;44.43;94571.16;4933217;29;7265;-44
2022/05/16 07:18:09;;;;;;;;;;;;;;;26.36;45.48;94578.94;4900775;29;8699;-50
2022/05/16 07:20:42;;;;;;;;;;;;;;;26.39;44.74;94577.91;4930719;28;9175;-48
2022/05/16 07:23:10;;;;;;;;;;;;;;;26.38;44.49;94584.69;4938522;28;6995;-48
2022/05/16 07:28:33;;;;;;;;;;;;;;;26.41;44.38;94592.69;4927196;29;9052;-45
2022/05/16 07:31:00;;;;;;;;;;;;;;;26.43;45.03;94589.41;4922092;29;7209;-44
2022/05/16 07:33:53;;;;;;;;;;;;;;;26.40;45.18;94584.94;4933715;28;7265;-46
2022/05/16 07:36:24;;;;;;;;;;;;;;;26.38;44.40;94593.69;4926748;28;7265;-44
2022/05/16 07:39:11;;;;;;;;;;;;;;;26.38;44.62;94595.72;4922652;28;7481;-44
2022/05/16 07:41:38;;;;;;;;;;;;;;;26.40;43.65;94593.97;4905753;29;9124;-47
2022/05/16 07:44:07;;;;;;;;;;;;;;;26.38;43.69;94604.72;4924687;29;6850;-47
2022/05/16 07:46:33;;;;;;;;;;;;;;;26.39;44.94;94599.97;4926375;29;7237;-45
2022/05/16 07:48:59;;;;;;;;;;;;;;;26.35;44.27;94596.75;4914725;29;8737;-43
2022/05/16 07:51:34;;;;;;;;;;;;;;;26.40;44.29;94598.72;4931347;29;7386;-45
2022/05/16 07:54:00;;;;;;;;;;;;;;;26.37;44.72;94597.72;4924169;29;7029;-44
2022/05/16 07:56:26;;;;;;;;;;;;;;;26.36;44.43;94598.25;4921992;29;7275;-49
2022/05/16 07:58:57;;;;;;;;;;;;;;;26.37;45.03;94596.97;4919881;29;9465;-47
2022/05/16 08:01:23;;;;;;;;;;;;;;;26.37;44.42;94589.44;4928483;29;9036;-47
2022/05/16 08:03:49;;;;;;;;;;;;;;;26.38;44.32;94601.25;4929712;29;9025;-45
2022/05/16 08:06:20;;;;;;;;;;;;;;;26.40;44.81;94595.97;4912986;29;7473;-46
2022/05/16 08:11:51;;;;;;;;;;;;;;;26.37;45.45;94597.72;4920327;29;8740;-46
2022/05/16 08:14:22;;;;;;;;;;;;;;;26.39;45.22;94599.97;4921863;29;7167;-48
2022/05/16 08:16:52;;;;;;;;;;;;;;;26.38;44.65;94598.47;4932895;29;8428;-49
2022/05/16 08:19:19;;;;;;;;;;;;;;;26.40;44.41;94595.97;4929720;29;7542;-44
2022/05/16 08:21:48;;;;;;;;;;;;;;;26.37;44.86;94597.72;4925571;29;9251;-45
2022/05/16 08:24:15;;;;;;;;;;;;;;;26.38;44.42;94593.69;4924501;29;7396;-48
2022/05/16 08:26:41;;;;;;;;;;;;;;;26.41;44.77;94597.44;4928539;29;6852;-46
2022/05/16 08:29:14;;;;;;;;;;;;;;;26.40;45.19;94602.22;4929304;29;7181;-47
2022/05/16 08:31:46;;;;;;;;;;;;;;;26.41;43.90;94600.19;4929095;29;9028;-44
2022/05/16 08:34:14;;;;;;;;;;;;;;;26.42;45.03;94604.47;4932770;29;8784;-44
2022/05/16 08:42:38;;;;;;;;;;;;;;;26.42;44.54;94607.22;4931597;29;7246;-46
2022/05/16 08:45:34;;;;;;;;;;;;;;;26.43;44.32;94605.97;4875578;29;7067;-45
2022/05/16 08:48:24;;;;;;;;;;;;;;;26.44;44.66;94612.97;4858660;29;9367;-47
2022/05/16 08:51:38;;;;;;;;;;;;;;;26.44;44.88;94607.47;4873179;29;7753;-45
2022/05/16 08:54:52;;;;;;;;;;;;;;;26.45;44.28;94611.72;4858293;29;8728;-46
2022/05/16 08:57:31;;;;;;;;;;;;;;;26.46;44.68;94611.22;4908277;29;7427;-44
2022/05/16 09:00:15;;;;;;;;;;;;;;;26.47;43.65;94611.97;4908297;29;7531;-49
2022/05/16 09:02:48;;;;;;;;;;;;;;;26.49;43.82;94606.69;4910579;29;8852;-45
2022/05/16 09:05:29;;;;;;;;;;;;;;;26.50;44.10;94614.44;4907620;29;9214;-45
2022/05/16 09:07:59;;;;;;;;;;;;;;;26.48;43.50;94611.44;4908140;29;6864;-44
2022/05/16 09:10:39;;;;;;;;;;;;;;;26.50;43.50;94613.69;4907996;29;7249;-46
2022/05/16 09:13:23;;;;;;;;;;;;;;;26.47;43.92;94618.22;4909348;29;9089;-45
2022/05/16 09:16:09;;;;;;;;;;;;;;;26.49;44.33;94615.69;4906121;29;7212;-45
2022/05/16 09:18:54;;;;;;;;;;;;;;;26.48;44.42;94611.44;4905975;29;7083;-44
2022/05/16 09:22:04;;;;;;;;;;;;;;;26.50;43.92;94610.94;4916599;29;8795;-47
2022/05/16 09:24:53;;;;;;;;;;;;;;;26.48;44.38;94607.94;4927276;29;8782;-46
2022/05/16 09:30:16;;;;;;;;;;;;;;;26.51;43.83;94612.44;4925729;29;7448;-47
2022/05/16 09:32:49;;;;;;;;;;;;;;;26.52;44.01;94602.88;4930391;28;9134;-45
2022/05/16 09:35:59;;;;;;;;;;;;;;;26.51;43.58;94599.38;4935463;28;9781;-46
2022/05/16 09:38:27;;;;;;;;;;;;;;;26.54;43.83;94600.38;4939038;28;7021;-46
2022/05/16 09:41:15;;;;;;;;;;;;;;;26.54;43.16;94605.88;4933799;28;7147;-45
2022/05/16 09:43:50;;;;;;;;;;;;;;;26.55;43.56;94605.41;4918199;29;7416;-44
2022/05/16 09:46:33;;;;;;;;;;;;;;;26.57;43.79;94604.88;4926735;28;8775;-43
2022/05/16 09:49:10;;;;;;;;;;;;;;;26.58;43.62;94606.34;4937127;28;6937;-47
2022/05/16 09:52:16;;;;;;;;;;;;;;;26.58;44.05;94600.84;4928963;28;9567;-45
2022/05/16 09:54:42;;;;;;;;;;;;;;;26.59;43.67;94596.84;4898189;29;6878;-45
2022/05/16 09:57:22;;;;;;;;;;;;;;;26.58;43.92;94598.84;4893972;29;7264;-45
2022/05/16 09:59:54;;;;;;;;;;;;;;;26.59;43.26;94596.84;4878880;29;6861;-48
2022/05/16 10:02:26;;;;;;;;;;;;;;;26.64;43.98;94601.56;4891246;29;9773;-44
2022/05/16 10:05:00;;;;;;;;;;;;;;;26.62;43.13;94601.34;4896326;29;8990;-48
2022/05/16 10:07:52;;;;;;;;;;;;;;;26.63;43.25;94602.81;4884694;29;9360;-45
2022/05/16 10:10:39;;;;;;;;;;;;;;;26.65;42.90;94600.28;4894624;29;7537;-47
2022/05/16 10:13:06;;;;;;;;;;;;;;;26.64;42.91;94593.28;4894670;29;7283;-48
2022/05/16 10:15:38;;;;;;;;;;;;;;;26.61;43.70;94595.06;4881425;29;7022;-47
2022/05/16 10:18:13;;;;;;;;;;;;;;;26.66;42.81;94590.78;4897079;29;9081;-45
2022/05/16 10:21:03;;;;;;;;;;;;;;;26.64;43.27;94587.78;4881303;29;9221;-47
2022/05/16 10:23:34;;;;;;;;;;;;;;;26.65;42.73;94586.50;4885764;29;9012;-46
2022/05/16 10:26:18;;;;;;;;;;;;;;;26.64;42.89;94587.78;4895679;29;9626;-45
2022/05/16 10:28:51;;;;;;;;;;;;;;;26.66;43.28;94586.00;4914319;29;9425;-47
2022/05/16 10:34:52;;;;;;;;;;;;;;;26.64;43.48;94594.03;4933402;29;8728;-45
2022/05/16 10:37:21;;;;;;;;;;;;;;;26.61;42.98;94577.75;4934262;28;7182;-44
2022/05/16 10:40:06;;;;;;;;;;;;;;;26.61;42.44;94586.03;4932773;29;7291;-44
2022/05/16 10:43:12;;;;;;;;;;;;;;;26.65;42.00;94586.50;4927103;29;8757;-45
2022/05/16 10:45:54;;;;;;;;;;;;;;;26.64;42.07;94591.25;4891877;29;7176;-46
2022/05/16 10:48:31;;;;;;;;;;;;;;;26.64;41.95;94582.25;4907685;29;9055;-46
2022/05/16 10:51:31;;;;;;;;;;;;;;;26.67;41.61;94593.00;4901527;29;7030;-44
2022/05/16 10:54:18;;;;;;;;;;;;;;;26.71;41.31;94592.72;4880984;29;7086;-47
2022/05/16 10:57:04;;;;;;;;;;;;;;;26.70;41.98;94582.97;4894350;29;9047;-46
2022/05/16 11:00:00;;;;;;;;;;;;;;;26.73;41.80;94590.97;4897253;29;7292;-44
2022/05/16 11:02:55;;;;;;;;;;;;;;;26.74;41.92;94595.25;4899174;29;7302;-45
2022/05/16 11:05:53;;;;;;;;;;;;;;;26.74;41.26;94581.44;4883289;29;9096;-45
2022/05/16 11:08:36;;;;;;;;;;;;;;;26.78;41.59;94587.44;4873414;29;9118;-44
2022/05/16 11:11:33;;;;;;;;;;;;;;;26.82;40.89;94587.13;4874371;29;7426;-46
2022/05/16 11:14:17;;;;;;;;;;;;;;;26.83;41.49;94588.66;4874617;29;7569;-47
2022/05/16 11:17:00;;;;;;;;;;;;;;;26.85;41.01;94583.38;4877443;29;7501;-43
2022/05/16 11:19:45;;;;;;;;;;;;;;;26.89;41.84;94581.06;4862008;29;7247;-44
2022/05/16 11:22:22;;;;;;;;;;;;;;;26.89;41.30;94575.56;4891064;29;7270;-44
2022/05/16 11:25:27;;;;;;;;;;;;;;;26.90;41.23;94577.06;4914860;29;9220;-47
2022/05/16 11:28:30;;;;;;;;;;;;;;;26.89;41.07;94584.59;4908434;29;7486;-48
2022/05/16 11:31:20;;;;;;;;;;;;;;;26.89;40.99;94578.31;4912073;29;9114;-48
2022/05/16 11:33:55;;;;;;;;;;;;;;;26.90;41.11;94577.78;4912613;29;9566;-45
2022/05/16 11:36:44;;;;;;;;;;;;;;;26.88;40.93;94574.06;4909359;29;7890;-50
2022/05/16 11:39:14;;;;;;;;;;;;;;;26.86;41.47;94565.56;4907115;29;9179;-45
2022/05/16 11:42:07;;;;;;;;;;;;;;;26.90;40.74;94554.97;4908830;29;7122;-49
2022/05/16 11:44:58;;;;;;;;;;;;;;;26.92;41.15;94551.69;4898987;29;9343;-48
2022/05/16 11:47:56;;;;;;;;;;;;;;;26.93;40.87;94564.97;4934526;28;9372;-45
2022/05/16 11:50:46;;;;;;;;;;;;;;;26.93;40.89;94553.94;4930564;28;9114;-47
2022/05/16 11:53:50;;;;;;;;;;;;;;;26.97;40.29;94550.91;4931121;28;7332;-48
2022/05/16 12:02:27;;;;;;;;;;;;;;;27.00;40.56;94558.88;4903071;29;6998;-48
2022/05/16 12:05:04;;;;;;;;;;;;;;;26.99;39.67;94562.91;4906188;29;8960;-46
2022/05/16 12:07:46;;;;;;;;;;;;;;;27.03;39.00;94560.63;4900535;29;7282;-47
2022/05/16 12:10:15;;;;;;;;;;;;;;;27.08;39.11;94548.75;4905116;29;6927;-47
2022/05/16 12:12:45;;;;;;;;;;;;;;;27.10;39.87;94549.00;4894118;29;9074;-47
2022/05/16 12:15:26;;;;;;;;;;;;;;;27.11;39.47;94558.78;4900264;29;9134;-44
2022/05/16 12:18:03;;;;;;;;;;;;;;;27.11;39.87;94556.03;4901969;29;9333;-46
2022/05/16 12:20:37;;;;;;;;;;;;;;;27.13;39.78;94549.97;4890448;29;7626;-44
2022/05/16 12:23:06;;;;;;;;;;;;;;;27.14;39.92;94557.00;4907000;29;9667;-46
2022/05/16 12:25:37;;;;;;;;;;;;;;;27.12;39.81;94559.53;4909181;29;7371;-48
2022/05/16 12:28:12;;;;;;;;;;;;;;;27.13;40.20;94550.72;4899708;29;9352;-48
2022/05/16 12:30:56;;;;;;;;;;;;;;;27.17;39.47;94545.66;4893883;29;8874;-45
2022/05/16 12:33:23;;;;;;;;;;;;;;;27.18;39.67;94540.91;4897468;29;7298;-44
2022/05/16 12:35:54;;;;;;;;;;;;;;;27.16;39.80;94544.19;4905201;29;7268;-47
2022/05/16 12:38:22;;;;;;;;;;;;;;;27.16;40.20;94554.47;4909207;29;7306;-48
2022/05/16 12:41:38;;;;;;;;;;;;;;;27.14;39.84;94543.97;4930275;29;7598;-47
2022/05/16 12:44:08;;;;;;;;;;;;;;;27.08;40.43;94540.47;4926187;29;9121;-48
2022/05/16 12:46:49;;;;;;;;;;;;;;;27.08;39.54;94531.47;4926693;29;7228;-45
2022/05/16 12:49:30;;;;;;;;;;;;;;;27.12;39.39;94531.94;4922272;29;7212;-46
2022/05/16 12:51:59;;;;;;;;;;;;;;;27.14;40.05;94529.41;4929192;29;7294;-44
2022/05/16 12:54:43;;;;;;;;;;;;;;;27.12;39.74;94529.16;4925839;29;7240;-45
2022/05/16 12:58:05;;;;;;;;;;;;;;;27.20;39.62;94528.06;4924253;29;8636;-44
2022/05/16 13:00:36;;;;;;;;;;;;;;;27.24;39.95;94522.25;4900834;29;7032;-44
2022/05/16 13:03:23;;;;;;;;;;;;;;;27.28;40.13;94520.69;4898344;29;7059;-44
2022/05/16 13:06:03;;;;;;;;;;;;;;;27.27;39.93;94519.22;4912015;29;7389;-44
2022/05/16 13:09:01;;;;;;;;;;;;;;;27.26;39.92;94520.47;4906686;29;7960;-45
2022/05/16 13:12:04;;;;;;;;;;;;;;;27.25;39.81;94513.44;4899070;29;7248;-46
2022/05/16 13:15:37;;;;;;;;;;;;;;;27.22;40.13;94520.00;4856688;29;7193;-45
2022/05/16 13:18:11;;;;;;;;;;;;;;;27.22;40.38;94511.72;4746824;30;7178;-45
2022/05/16 13:21:15;;;;;;;;;;;;;;;27.26;40.35;94512.19;4736133;30;7282;-45
2022/05/16 13:23:44;;;;;;;;;;;;;;;27.29;39.92;94508.41;4733058;30;9071;-45
2022/05/16 13:31:57;;;;;;;;;;;;;;;27.37;39.12;94514.09;4747261;30;7494;-46
2022/05/16 13:34:28;;;;;;;;;;;;;;;27.38;40.25;94504.56;4732848;30;9148;-44
2022/05/16 13:36:55;;;;;;;;;;;;;;;27.39;40.70;94515.09;4733787;30;7018;-46
2022/05/16 13:39:40;;;;;;;;;;;;;;;27.45;40.05;94504.72;4746373;30;8644;-46
2022/05/16 13:42:07;;;;;;;;;;;;;;;27.49;40.00;94513.44;4745750;30;7270;-45
2022/05/16 13:44:39;;;;;;;;;;;;;;;27.49;40.59;94502.41;4747821;30;9090;-44
2022/05/16 13:47:08;;;;;;;;;;;;;;;27.53;40.51;94499.34;4740659;30;7040;-43
2022/05/16 13:49:37;;;;;;;;;;;;;;;27.51;40.64;94505.38;4782256;29;9865;-45
2022/05/16 13:52:04;;;;;;;;;;;;;;;27.52;40.73;94504.13;4847264;29;9001;-44
2022/05/16 13:54:37;;;;;;;;;;;;;;;27.51;40.97;94508.16;4905766;28;9265;-45
2022/05/16 13:57:12;;;;;;;;;;;;;;;27.52;40.94;94501.38;4935634;28;7446;-47
2022/05/16 13:59:42;;;;;;;;;;;;;;;27.52;41.09;94509.66;4932673;28;9211;-45
2022/05/16 14:02:17;;;;;;;;;;;;;;;27.49;40.78;94502.41;4929769;28;7056;-45
2022/05/16 14:04:49;;;;;;;;;;;;;;;27.53;40.90;94504.88;4927948;29;8778;-45
2022/05/16 14:07:26;;;;;;;;;;;;;;;27.52;40.75;94509.66;4913928;29;7817;-44
2022/05/16 14:10:01;;;;;;;;;;;;;;;27.52;40.77;94504.13;4928151;29;7677;-44
2022/05/16 14:12:38;;;;;;;;;;;;;;;27.59;40.85;94511.09;4912884;29;9296;-45
2022/05/16 14:15:30;;;;;;;;;;;;;;;27.58;41.14;94515.09;4927435;29;8692;-44
2022/05/16 14:17:59;;;;;;;;;;;;;;;27.60;40.30;94509.78;4884822;29;8760;-43
2022/05/16 14:20:25;;;;;;;;;;;;;;;27.59;41.31;94508.31;4883950;29;8760;-46
2022/05/16 14:22:59;;;;;;;;;;;;;;;27.63;41.11;94515.03;4890557;29;7888;-48
2022/05/16 14:25:28;;;;;;;;;;;;;;;27.66;41.11;94507.72;4880043;29;9127;-48
2022/05/16 14:28:24;;;;;;;;;;;;;;;27.67;40.51;94525.03;4884882;29;7137;-45
2022/05/16 14:30:52;;;;;;;;;;;;;;;27.69;40.94;94533.59;4892161;29;7240;-47
2022/05/16 14:33:19;;;;;;;;;;;;;;;27.68;40.91;94521.78;4890668;29;9440;-47